Constr.zhivotovsky — UDTG — position and weather

sailwx.info

Track history (hours):
 
Tides and Currents Weather Stations Pressure Air Temp Water Temp Dewpoint Dewpoint Depression Visibility Wind Speed Wind Dir Waves Ship Positions

Constr.zhivotovsky

Last reported at 2018-Jun-15 21:21 UTC. Time now 2018-Jun-19 08:12 UTC.
Position N 35°07' E 030°04'.

Length 141 m; draft 3.2 m.

Type: Ship (hazmat cat B). MMSI: 273351180.

Date/timePositionNaut miles runAvg speedWind from/ knotsBaromVisibWave heightAir tempDewpointWater temp
2018-Jun-15 21:21N 35°07' E 030°04'410.8
2018-Jun-15 21:01N 35°06' E 030°08'1010.8
2018-Jun-15 20:05N 35°03' E 030°20'110.7
2018-Jun-15 20:00N 35°03' E 030°21'1610.6
2018-Jun-15 18:31N 34°57' E 030°39'2910.3
2018-Jun-15 15:40N 34°48' E 031°13'310.3
2018-Jun-15 15:22N 34°46' E 031°17'610.2
2018-Jun-15 14:46N 34°44' E 031°24'310.1
2018-Jun-15 14:31N 34°44' E 031°27'810.2
2018-Jun-15 13:46N 34°41' E 031°35'1810.3
2018-Jun-15 12:03N 34°36' E 031°56'010.2
2018-Jun-15 12:00N 34°35' E 031°56'  
2018-Jun-10 17:35N 34°42' E 033°20'0 0.0
2018-Jun-10 17:27N 34°42' E 033°20'0 0.0
2018-Jun-10 16:55N 34°42' E 033°20'0 0.0
2018-Jun-10 16:09N 34°42' E 033°20'0 0.0
2018-Jun-10 15:51N 34°42' E 033°20'0 0.0
2018-Jun-10 15:30N 34°42' E 033°20'0 0.0
2018-Jun-10 14:37N 34°42' E 033°20'0 0.0
2018-Jun-10 14:29N 34°42' E 033°20'0 0.0
2018-Jun-10 13:25N 34°42' E 033°20'0 0.0
2018-Jun-10 11:26N 34°42' E 033°20'0 0.0
2018-Jun-10 10:59N 34°42' E 033°20'0 0.0
2018-Jun-10 09:18N 34°42' E 033°20'2 0.1
2018-Jun-09 13:58N 34°40' E 033°20'13 9.2
2018-Jun-09 12:34N 34°27' E 033°17'1 9.2
2018-Jun-09 12:30N 34°27' E 033°17'8 7.9
2018-Jun-09 11:31N 34°22' E 033°10'1 9.3
2018-Jun-09 11:23N 34°22' E 033°08'4 9.4
2018-Jun-09 11:00N 34°21' E 033°04'5 9.6
2018-Jun-09 10:30N 34°20' E 032°58'10 9.4
2018-Jun-09 09:25N 34°21' E 032°46'7 9.6
2018-Jun-09 08:38N 34°23' E 032°38'1 9.7
2018-Jun-09 08:30N 34°24' E 032°36'7 9.6
2018-Jun-09 07:45N 34°26' E 032°28'3 9.6
2018-Jun-09 07:25N 34°27' E 032°24'22 9.4
2018-Jun-09 05:05N 34°34' E 031°59'1 9.4
2018-Jun-09 05:00N 34°35' E 031°58'101 8.7
2018-Jun-08 17:26N 35°08' E 030°02'4 8.7
2018-Jun-08 17:00N 35°09' E 029°57'4 8.9
2018-Jun-08 16:30N 35°10' E 029°52'21 8.9
2018-Jun-08 14:09N 35°17' E 029°28'9 9.0
2018-Jun-08 13:09N 35°20' E 029°18'1 9.1
2018-Jun-08 13:00N 35°21' E 029°16'5 9.1
2018-Jun-08 12:30N 35°22' E 029°11'198 8.9
2018-Jun-07 14:08N 37°23' E 025°55'1 9.3
2018-Jun-07 14:00N 37°24' E 025°54'5 9.4
2018-Jun-07 13:30N 37°28' E 025°52'5 9.2
2018-Jun-07 13:00N 37°33' E 025°51'145 8.7
2018-Jun-06 20:13N 39°58' E 025°55'3 9.6
2018-Jun-06 19:53N 40°00' E 025°58'4 9.1
2018-Jun-06 19:28N 40°01' E 026°03'  
Track history (hours):
 
Tides and Currents Weather Stations Pressure Air Temp Water Temp Dewpoint Dewpoint Depression Visibility Wind Speed Wind Dir Waves Ship Positions

Constr.zhivotovsky

Last reported at 2018-Jun-15 21:21 UTC. Time now 2018-Jun-19 08:12 UTC.
Position N 35°07' E 030°04'.

Length 141 m; draft 3.2 m.

Type: Ship (hazmat cat B). MMSI: 273351180.

Date/timePositionNaut miles runAvg speedWind from/ knotsBaromVisibWave heightAir tempDewpointWater temp
2018-Jun-15 21:21N 35°07' E 030°04'410.8
2018-Jun-15 21:01N 35°06' E 030°08'1010.8
2018-Jun-15 20:05N 35°03' E 030°20'110.7
2018-Jun-15 20:00N 35°03' E 030°21'1610.6
2018-Jun-15 18:31N 34°57' E 030°39'2910.3
2018-Jun-15 15:40N 34°48' E 031°13'310.3
2018-Jun-15 15:22N 34°46' E 031°17'610.2
2018-Jun-15 14:46N 34°44' E 031°24'310.1
2018-Jun-15 14:31N 34°44' E 031°27'810.2
2018-Jun-15 13:46N 34°41' E 031°35'1810.3
2018-Jun-15 12:03N 34°36' E 031°56'010.2
2018-Jun-15 12:00N 34°35' E 031°56'  
2018-Jun-10 17:35N 34°42' E 033°20'0 0.0
2018-Jun-10 17:27N 34°42' E 033°20'0 0.0
2018-Jun-10 16:55N 34°42' E 033°20'0 0.0
2018-Jun-10 16:09N 34°42' E 033°20'0 0.0
2018-Jun-10 15:51N 34°42' E 033°20'0 0.0
2018-Jun-10 15:30N 34°42' E 033°20'0 0.0
2018-Jun-10 14:37N 34°42' E 033°20'0 0.0
2018-Jun-10 14:29N 34°42' E 033°20'0 0.0
2018-Jun-10 13:25N 34°42' E 033°20'0 0.0
2018-Jun-10 11:26N 34°42' E 033°20'0 0.0
2018-Jun-10 10:59N 34°42' E 033°20'0 0.0
2018-Jun-10 09:18N 34°42' E 033°20'2 0.1
2018-Jun-09 13:58N 34°40' E 033°20'13 9.2
2018-Jun-09 12:34N 34°27' E 033°17'1 9.2
2018-Jun-09 12:30N 34°27' E 033°17'8 7.9
2018-Jun-09 11:31N 34°22' E 033°10'1 9.3
2018-Jun-09 11:23N 34°22' E 033°08'4 9.4
2018-Jun-09 11:00N 34°21' E 033°04'5 9.6
2018-Jun-09 10:30N 34°20' E 032°58'10 9.4
2018-Jun-09 09:25N 34°21' E 032°46'7 9.6
2018-Jun-09 08:38N 34°23' E 032°38'1 9.7
2018-Jun-09 08:30N 34°24' E 032°36'7 9.6
2018-Jun-09 07:45N 34°26' E 032°28'3 9.6
2018-Jun-09 07:25N 34°27' E 032°24'22 9.4
2018-Jun-09 05:05N 34°34' E 031°59'1 9.4
2018-Jun-09 05:00N 34°35' E 031°58'101 8.7
2018-Jun-08 17:26N 35°08' E 030°02'4 8.7
2018-Jun-08 17:00N 35°09' E 029°57'4 8.9
2018-Jun-08 16:30N 35°10' E 029°52'21 8.9
2018-Jun-08 14:09N 35°17' E 029°28'9 9.0
2018-Jun-08 13:09N 35°20' E 029°18'1 9.1
2018-Jun-08 13:00N 35°21' E 029°16'5 9.1
2018-Jun-08 12:30N 35°22' E 029°11'198 8.9
2018-Jun-07 14:08N 37°23' E 025°55'1 9.3
2018-Jun-07 14:00N 37°24' E 025°54'5 9.4
2018-Jun-07 13:30N 37°28' E 025°52'5 9.2
2018-Jun-07 13:00N 37°33' E 025°51'145 8.7
2018-Jun-06 20:13N 39°58' E 025°55'3 9.6
2018-Jun-06 19:53N 40°00' E 025°58'4 9.1
2018-Jun-06 19:28N 40°01' E 026°03'  

Dump ship's entire track history